Time;durP1;ratioP1;P1;durP2;ratioP2;P2;SDS_P1;SDS_P2;PMS_P1;PMS_P2;Temp;Humidity;BMP_temperature;BMP_pressure;BME280_temperature;BME280_humidity;BME280_pressure;Samples;Min_cycle;Max_cycle;Signal;HPM_P1;HPM_P2
2022/10/09 00:02:12;;;;;;;18.20;9.23;;;10.20;96.40;;;;;;20927978;28;20275;-72
2022/10/09 00:12:13;;;;;;;14.30;6.80;;;10.20;96.30;;;;;;20919497;28;20208;-71
2022/10/09 00:22:15;;;;;;;49.00;17.73;;;10.00;96.20;;;;;;20918333;28;20235;-73
2022/10/09 00:32:17;;;;;;;36.73;12.73;;;9.90;97.00;;;;;;20918340;28;20226;-74
2022/10/09 00:42:20;;;;;;;40.33;15.67;;;9.90;97.10;;;;;;20917007;28;20284;-73
2022/10/09 00:52:24;;;;;;;45.13;12.57;;;9.80;97.20;;;;;;20916585;28;20671;-76
2022/10/09 01:02:26;;;;;;;39.13;12.87;;;9.80;97.30;;;;;;20915861;28;20250;-73
2022/10/09 01:12:58;;;;;;;78.67;15.57;;;9.80;97.60;;;;;;20915083;28;20291;-72
2022/10/09 01:23:05;;;;;;;94.67;14.10;;;9.80;97.70;;;;;;20914108;28;20236;-76
2022/10/09 01:33:08;;;;;;;59.30;10.10;;;9.80;98.30;;;;;;20912999;28;20216;-75
2022/10/09 01:43:10;;;;;;;16.43;9.57;;;9.90;98.40;;;;;;20911350;28;20272;-71
2022/10/09 01:53:17;;;;;;;18.20;8.50;;;9.90;98.80;;;;;;20912045;28;20565;-73
2022/10/09 02:03:19;;;;;;;28.23;8.00;;;9.90;98.60;;;;;;20911870;28;20715;-74
2022/10/09 02:13:22;;;;;;;18.17;7.90;;;9.90;98.60;;;;;;20911007;28;20204;-74
2022/10/09 02:23:25;;;;;;;23.40;10.67;;;9.90;98.70;;;;;;20910490;28;20297;-76
2022/10/09 02:33:31;;;;;;;13.23;6.90;;;9.90;98.90;;;;;;20910496;28;20208;-73
2022/10/09 02:43:32;;;;;;;8.20;6.53;;;9.90;98.70;;;;;;20921108;28;20244;-71
2022/10/09 02:53:34;;;;;;;139.20;12.07;;;9.80;99.00;;;;;;20925838;28;20207;-71
2022/10/09 03:03:36;;;;;;;33.10;9.20;;;9.60;98.90;;;;;;20925558;28;20266;-72
2022/10/09 03:13:38;;;;;;;131.37;11.70;;;9.40;98.90;;;;;;20924162;28;20212;-72
2022/10/09 03:23:41;;;;;;;91.87;10.57;;;9.20;99.10;;;;;;20923235;28;20236;-71
2022/10/09 03:33:43;;;;;;;35.87;12.00;;;9.20;99.50;;;;;;20922881;28;20647;-73
2022/10/09 03:43:45;;;;;;;24.57;9.13;;;9.30;99.50;;;;;;20921322;28;20239;-74
2022/10/09 03:53:46;;;;;;;25.23;8.23;;;9.40;99.90;;;;;;20920395;28;20219;-71
2022/10/09 04:03:48;;;;;;;10.17;7.00;;;9.50;99.90;;;;;;20920050;28;20245;-72
2022/10/09 04:13:50;;;;;;;12.90;7.37;;;;;;;;;;20919303;28;20215;-74
2022/10/09 04:23:52;;;;;;;10.80;7.40;;;9.70;99.50;;;;;;20918661;28;20733;-73
2022/10/09 04:33:54;;;;;;;13.07;7.47;;;9.70;99.30;;;;;;20918037;28;20211;-72
2022/10/09 04:43:56;;;;;;;11.83;6.30;;;9.60;99.60;;;;;;20917077;28;20608;-74
2022/10/09 04:53:58;;;;;;;15.57;7.13;;;9.70;99.70;;;;;;20916484;28;20655;-72
2022/10/09 05:04:01;;;;;;;13.53;7.83;;;9.80;99.20;;;;;;20914976;28;20262;-70
2022/10/09 05:14:03;;;;;;;32.70;7.40;;;9.70;99.60;;;;;;20914844;28;20272;-71
2022/10/09 05:24:04;;;;;;;9.03;6.63;;;9.50;99.20;;;;;;20914130;28;20699;-73
2022/10/09 05:34:10;;;;;;;33.97;6.87;;;9.50;99.70;;;;;;20913803;28;20654;-72
2022/10/09 05:44:12;;;;;;;13.57;6.90;;;9.40;99.50;;;;;;20912135;28;20296;-75
2022/10/09 05:54:15;;;;;;;11.30;6.53;;;9.20;99.30;;;;;;20912320;28;20570;-74
2022/10/09 06:04:22;;;;;;;11.87;6.73;;;9.30;99.50;;;;;;20911646;28;20234;-75
2022/10/09 06:14:24;;;;;;;11.13;6.57;;;9.30;99.80;;;;;;20911012;28;20276;-73
2022/10/09 06:24:26;;;;;;;11.30;6.50;;;9.40;99.30;;;;;;20909700;28;20234;-72
2022/10/09 06:34:30;;;;;;;10.17;6.30;;;9.50;99.20;;;;;;20910021;28;20213;-75
2022/10/09 06:44:31;;;;;;;11.13;7.63;;;9.50;99.20;;;;;;20908499;28;20235;-76
2022/10/09 06:54:33;;;;;;;17.83;7.50;;;9.50;99.10;;;;;;20909540;28;20204;-71
2022/10/09 07:04:36;;;;;;;15.87;11.47;;;9.50;99.30;;;;;;20909287;28;20731;-71
2022/10/09 07:14:38;;;;;;;13.90;6.83;;;9.60;99.00;;;;;;20909225;28;20564;-72
2022/10/09 07:24:39;;;;;;;10.00;7.03;;;9.90;98.80;;;;;;20909898;28;20326;-73
2022/10/09 07:34:42;;;;;;;10.53;7.27;;;10.00;98.70;;;;;;20975879;28;20203;-72
2022/10/09 07:44:43;;;;;;;11.90;7.30;;;10.30;98.10;;;;;;21004222;28;20236;-73
2022/10/09 07:54:45;;;;;;;13.40;7.53;;;10.30;98.40;;;;;;21001027;28;20238;-72
2022/10/09 08:04:46;;;;;;;11.53;7.67;;;10.40;98.30;;;;;;21001833;28;20242;-72
2022/10/09 08:14:48;;;;;;;10.63;7.80;;;10.50;98.00;;;;;;21002090;28;20208;-72
2022/10/09 08:24:50;;;;;;;11.37;7.63;;;10.50;97.50;;;;;;21000474;28;20236;-72
2022/10/09 08:34:52;;;;;;;11.70;7.97;;;10.30;97.70;;;;;;20934694;28;20219;-72
2022/10/09 08:44:54;;;;;;;13.67;8.07;;;10.30;98.00;;;;;;20916610;28;20759;-72
2022/10/09 08:55:02;;;;;;;11.00;7.53;;;10.80;98.10;;;;;;20914911;28;20205;-71
2022/10/09 09:05:33;;;;;;;14.70;9.73;;;11.00;98.20;;;;;;20913852;28;20244;-71
2022/10/09 09:15:50;;;;;;;9.37;6.90;;;11.20;97.20;;;;;;20915039;28;20270;-71
2022/10/09 09:25:51;;;;;;;10.37;7.70;;;11.30;97.50;;;;;;20913827;28;20238;-72
2022/10/09 09:36:09;;;;;;;11.87;7.80;;;11.70;97.20;;;;;;20912664;28;20558;-71
2022/10/09 09:46:17;;;;;;;9.17;7.23;;;12.00;96.90;;;;;;20912307;28;20237;-73
2022/10/09 09:56:19;;;;;;;9.17;7.20;;;12.00;97.20;;;;;;20911315;28;20208;-73
2022/10/09 10:06:23;;;;;;;6.20;4.90;;;12.40;97.00;;;;;;20910885;28;20321;-76
2022/10/09 10:16:27;;;;;;;6.97;3.40;;;13.00;96.80;;;;;;20910758;28;20212;-72
2022/10/09 10:26:52;;;;;;;6.40;3.20;;;14.00;95.00;;;;;;20910566;28;20227;-74
2022/10/09 10:37:11;;;;;;;7.53;3.50;;;14.10;95.20;;;;;;20982140;28;20284;-76
2022/10/09 10:47:20;;;;;;;4.03;2.80;;;14.50;94.20;;;;;;20992728;28;20243;-74
2022/10/09 10:57:51;;;;;;;2.80;1.90;;;14.90;93.20;;;;;;20992232;28;20207;-75
2022/10/09 11:08:14;;;;;;;6.27;2.10;;;15.00;92.70;;;;;;20987861;28;20253;-75
2022/10/09 11:18:44;;;;;;;4.70;2.30;;;15.30;91.60;;;;;;21007428;28;20207;-75
2022/10/09 11:28:58;;;;;;;4.73;2.03;;;15.50;90.50;;;;;;21009288;28;20232;-72
2022/10/09 11:39:08;;;;;;;5.43;1.77;;;15.80;88.40;;;;;;20988266;28;20207;-72
2022/10/09 11:49:36;;;;;;;3.50;1.90;;;16.10;84.70;;;;;;21004702;28;20234;-71
2022/10/09 11:59:41;;;;;;;3.77;1.87;;;16.40;81.00;;;;;;21002905;28;20539;-70
2022/10/09 12:09:47;;;;;;;3.93;1.97;;;16.70;78.80;;;;;;21001919;28;20232;-69
2022/10/09 12:20:05;;;;;;;4.93;2.20;;;17.00;76.20;;;;;;21001753;28;20265;-70
2022/10/09 12:30:11;;;;;;;3.43;2.10;;;17.20;73.50;;;;;;20988167;28;20232;-70
2022/10/09 12:40:21;;;;;;;8.03;2.27;;;17.30;71.30;;;;;;20917099;28;20217;-72
2022/10/09 12:50:31;;;;;;;3.30;2.10;;;17.40;69.80;;;;;;20916186;28;20284;-69
2022/10/09 13:00:34;;;;;;;3.30;2.10;;;17.40;69.90;;;;;;20915813;28;20239;-70
2022/10/09 13:10:36;;;;;;;3.53;2.00;;;17.40;69.30;;;;;;20914623;28;20251;-70
2022/10/09 13:20:37;;;;;;;5.07;2.37;;;17.40;69.20;;;;;;20914720;28;20562;-74
2022/10/09 13:30:39;;;;;;;5.03;2.07;;;17.40;68.50;;;;;;20912730;28;20261;-69
2022/10/09 13:40:42;;;;;;;4.00;1.90;;;17.40;68.00;;;;;;20912750;28;20209;-71
2022/10/09 13:50:44;;;;;;;4.10;2.13;;;17.40;67.90;;;;;;20912232;28;20242;-76
2022/10/09 14:00:46;;;;;;;6.37;2.33;;;17.50;67.80;;;;;;20908827;28;20237;-69
2022/10/09 14:10:48;;;;;;;4.93;2.10;;;17.50;67.50;;;;;;20892893;28;20306;-71
2022/10/09 14:20:50;;;;;;;3.10;1.90;;;17.80;67.10;;;;;;20911947;28;20210;-70
2022/10/09 14:30:51;;;;;;;1.67;1.50;;;18.10;65.90;;;;;;20909782;28;20640;-69
2022/10/09 14:40:55;;;;;;;5.03;1.57;;;19.00;64.60;;;;;;20921538;28;20225;-79
2022/10/09 14:51:02;;;;;;;6.50;1.60;;;19.20;60.50;;;;;;20924544;28;20690;-76
2022/10/09 15:01:04;;;;;;;2.37;1.50;;;19.50;61.50;;;;;;20925376;28;20285;-76
2022/10/09 15:11:07;;;;;;;3.27;1.60;;;21.30;56.60;;;;;;20924479;28;20232;-77
2022/10/09 15:21:14;;;;;;;2.73;1.50;;;19.80;56.80;;;;;;20924018;28;20208;-77
2022/10/09 15:31:25;;;;;;;3.43;1.60;;;18.90;57.40;;;;;;20923787;28;20705;-77
2022/10/09 15:41:29;;;;;;;1.47;1.30;;;18.20;57.50;;;;;;20922419;28;20209;-75
2022/10/09 15:51:32;;;;;;;2.20;1.50;;;17.80;57.50;;;;;;20902714;28;20326;-72
2022/10/09 16:01:34;;;;;;;3.23;1.67;;;17.50;57.50;;;;;;20921146;28;20293;-74
2022/10/09 16:11:36;;;;;;;4.47;1.80;;;17.10;57.40;;;;;;20902488;28;20767;-72
2022/10/09 16:21:37;;;;;;;2.20;1.80;;;16.90;58.20;;;;;;20919604;28;20207;-76
2022/10/09 16:31:39;;;;;;;4.67;1.93;;;16.70;58.60;;;;;;20970456;28;20302;-73
2022/10/09 16:41:41;;;;;;;3.00;2.23;;;16.50;59.20;;;;;;20989799;28;20207;-78
2022/10/09 16:51:43;;;;;;;2.93;2.00;;;16.30;60.10;;;;;;20992797;28;20734;-78
2022/10/09 17:01:46;;;;;;;4.37;2.30;;;15.90;61.90;;;;;;20996279;28;20231;-73
2022/10/09 17:11:48;;;;;;;3.80;2.43;;;15.80;63.00;;;;;;20991828;28;20227;-72
2022/10/09 17:21:50;;;;;;;4.10;2.77;;;15.40;64.50;;;;;;20991958;28;20211;-71
2022/10/09 17:31:51;;;;;;;6.03;2.70;;;15.30;65.60;;;;;;20989467;28;20631;-72
2022/10/09 17:41:53;;;;;;;5.20;2.80;;;15.10;66.90;;;;;;20971317;28;20203;-72
2022/10/09 17:51:56;;;;;;;4.33;2.60;;;14.50;68.60;;;;;;20986525;28;20228;-72
2022/10/09 18:01:57;;;;;;;4.10;2.43;;;14.40;68.70;;;;;;20986944;28;20233;-72
2022/10/09 18:11:59;;;;;;;6.23;2.73;;;14.30;69.90;;;;;;20985364;28;20860;-71
2022/10/09 18:22:01;;;;;;;4.33;2.60;;;14.10;70.80;;;;;;20985892;28;20199;-71
2022/10/09 18:32:04;;;;;;;10.27;5.10;;;13.90;71.70;;;;;;20989481;28;20641;-72
2022/10/09 18:42:06;;;;;;;13.43;8.37;;;13.60;72.80;;;;;;20965790;28;20215;-71
2022/10/09 18:52:09;;;;;;;12.60;7.30;;;13.40;73.70;;;;;;20961652;28;20228;-72
2022/10/09 19:02:11;;;;;;;8.87;6.03;;;13.20;75.30;;;;;;20992758;28;20235;-72
2022/10/09 19:12:17;;;;;;;9.43;5.70;;;13.10;76.50;;;;;;20992202;28;20566;-72
2022/10/09 19:22:19;;;;;;;12.20;5.83;;;12.80;77.80;;;;;;20995604;28;20340;-72
2022/10/09 19:32:25;;;;;;;9.97;5.60;;;12.70;79.30;;;;;;21006390;28;20318;-71
2022/10/09 19:42:26;;;;;;;18.23;8.90;;;12.50;80.70;;;;;;21005177;28;20214;-73
2022/10/09 19:52:28;;;;;;;11.57;6.53;;;12.40;81.60;;;;;;21004320;28;20230;-72
2022/10/09 20:02:30;;;;;;;13.10;6.67;;;12.20;82.50;;;;;;21003566;28;20231;-71
2022/10/09 20:12:31;;;;;;;10.27;6.20;;;12.20;83.60;;;;;;21003278;28;20296;-71
2022/10/09 20:22:33;;;;;;;34.50;19.87;;;12.10;84.30;;;;;;21000529;28;20219;-71
2022/10/09 20:32:35;;;;;;;18.57;11.20;;;12.00;85.30;;;;;;21000961;28;20767;-71
2022/10/09 20:42:37;;;;;;;14.43;8.97;;;11.90;86.00;;;;;;20977646;28;20207;-71
2022/10/09 20:52:39;;;;;;;9.20;5.97;;;11.90;86.90;;;;;;20974617;28;20233;-72
2022/10/09 21:02:40;;;;;;;9.73;5.83;;;11.80;87.30;;;;;;20998722;28;20235;-71
2022/10/09 21:12:42;;;;;;;9.63;5.80;;;11.70;88.10;;;;;;20998007;28;20292;-71
2022/10/09 21:22:44;;;;;;;9.17;6.03;;;11.60;88.60;;;;;;20996950;28;20220;-71
2022/10/09 21:32:45;;;;;;;10.63;5.73;;;11.40;90.20;;;;;;20996211;28;20571;-71
2022/10/09 21:42:47;;;;;;;11.13;5.90;;;11.50;90.30;;;;;;20994562;28;20578;-71
2022/10/09 21:52:49;;;;;;;10.60;6.50;;;11.60;90.70;;;;;;20995425;28;20247;-72
2022/10/09 22:02:51;;;;;;;8.77;5.90;;;11.60;90.80;;;;;;20971030;28;20234;-72
2022/10/09 22:12:55;;;;;;;16.57;6.37;;;11.60;91.00;;;;;;20994860;28;20245;-73
2022/10/09 22:22:56;;;;;;;13.20;6.50;;;11.70;91.00;;;;;;20917798;28;20552;-73
2022/10/09 22:32:58;;;;;;;9.17;6.07;;;11.60;91.50;;;;;;20909141;28;20242;-73
2022/10/09 22:43:00;;;;;;;12.10;6.23;;;11.60;91.80;;;;;;20909719;28;20577;-72
2022/10/09 22:53:02;;;;;;;11.53;6.27;;;11.60;92.00;;;;;;20910349;28;20256;-71
2022/10/09 23:03:03;;;;;;;9.93;6.00;;;11.70;92.10;;;;;;20924466;28;20233;-71
2022/10/09 23:13:05;;;;;;;8.87;5.97;;;11.70;92.30;;;;;;20925785;28;20247;-71
2022/10/09 23:23:07;;;;;;;9.20;6.30;;;11.70;92.50;;;;;;20924393;28;20220;-71
2022/10/09 23:33:08;;;;;;;9.87;6.23;;;11.80;92.70;;;;;;20923493;28;20239;-71
2022/10/09 23:43:10;;;;;;;9.37;5.60;;;11.90;92.70;;;;;;20923245;28;20225;-71
2022/10/09 23:53:12;;;;;;;10.57;5.90;;;11.90;92.80;;;;;;20921936;28;20262;-71
